createdAt,value
2023-05-14T00:00:45.297Z,6.03
2023-05-14T00:02:07.924Z,5.88
2023-05-14T00:03:32.437Z,5.88
2023-05-14T00:04:54.901Z,6.13
2023-05-14T00:06:18.353Z,6.65
2023-05-14T00:07:41.225Z,6.22
2023-05-14T00:09:05.785Z,6.60
2023-05-14T00:10:29.308Z,6.03
2023-05-14T00:11:51.766Z,6.43
2023-05-14T00:13:16.558Z,6.70
2023-05-14T00:14:39.849Z,6.15
2023-05-14T00:16:03.528Z,6.93
2023-05-14T00:17:27.105Z,6.28
2023-05-14T00:18:50.600Z,6.43
2023-05-14T00:20:14.170Z,6.47
2023-05-14T00:21:37.569Z,6.72
2023-05-14T00:22:59.942Z,6.43
2023-05-14T00:24:23.612Z,6.57
2023-05-14T00:25:46.292Z,7.35
2023-05-14T00:27:09.961Z,6.97
2023-05-14T00:28:34.747Z,7.15
2023-05-14T00:29:57.131Z,6.47
2023-05-14T00:31:20.618Z,7.50
2023-05-14T00:32:43.178Z,7.07
2023-05-14T00:34:06.670Z,6.32
2023-05-14T00:35:30.158Z,7.10
2023-05-14T00:36:53.698Z,6.70
2023-05-14T00:38:16.971Z,7.38
2023-05-14T00:39:40.383Z,7.07
2023-05-14T00:41:03.775Z,7.10
2023-05-14T00:42:27.370Z,7.05
2023-05-14T00:43:52.253Z,7.05
2023-05-14T00:45:14.690Z,7.07
2023-05-14T00:46:38.166Z,6.60
2023-05-14T00:48:00.778Z,7.28
2023-05-14T00:49:24.543Z,6.63
2023-05-14T00:50:48.032Z,6.93
2023-05-14T00:52:12.324Z,6.60
2023-05-14T00:53:35.833Z,6.55
2023-05-14T00:54:58.250Z,7.55
2023-05-14T00:56:22.287Z,7.22
2023-05-14T00:57:44.897Z,7.30
2023-05-14T00:59:09.672Z,7.80
2023-05-14T01:00:32.061Z,7.90
2023-05-14T01:01:55.475Z,7.18
2023-05-14T01:03:17.945Z,7.25
2023-05-14T01:04:42.610Z,8.00
2023-05-14T01:06:12.416Z,6.93
2023-05-14T01:07:41.272Z,6.28
2023-05-14T01:09:09.200Z,7.07
2023-05-14T01:10:45.621Z,6.32
2023-05-14T01:12:12.472Z,6.95
2023-05-14T01:13:42.683Z,7.80
2023-05-14T01:15:09.387Z,6.75
2023-05-14T01:16:36.324Z,5.85
2023-05-14T01:18:02.029Z,6.60
2023-05-14T01:19:35.072Z,6.18
2023-05-14T01:20:57.575Z,6.22
2023-05-14T01:22:22.351Z,5.88
2023-05-14T01:23:44.828Z,5.82
2023-05-14T01:25:09.381Z,5.75
2023-05-14T01:26:31.886Z,5.22
2023-05-14T01:28:01.630Z,5.55
2023-05-14T01:29:24.456Z,5.70
2023-05-14T01:30:55.858Z,5.85
2023-05-14T01:32:18.465Z,5.28
2023-05-14T01:33:44.283Z,5.65
2023-05-14T01:35:07.660Z,4.95
2023-05-14T01:36:32.997Z,4.82
2023-05-14T01:37:59.838Z,5.15
2023-05-14T01:39:23.338Z,5.97
2023-05-14T01:40:47.258Z,5.57
2023-05-14T01:42:11.209Z,5.13
2023-05-14T01:43:35.127Z,5.00
2023-05-14T01:44:57.595Z,5.43
2023-05-14T01:46:21.097Z,4.95
2023-05-14T01:47:44.578Z,5.00
2023-05-14T01:49:07.010Z,5.65
2023-05-14T01:50:30.643Z,5.63
2023-05-14T01:51:53.066Z,5.50
2023-05-14T01:53:17.970Z,4.88
2023-05-14T01:54:40.442Z,5.30
2023-05-14T01:56:04.018Z,4.97
2023-05-14T01:57:26.493Z,4.72
2023-05-14T01:58:49.886Z,5.25
2023-05-14T02:00:13.118Z,4.50
2023-05-14T02:01:36.621Z,4.38
2023-05-14T02:03:00.134Z,4.53
2023-05-14T02:04:23.703Z,5.18
2023-05-14T02:05:47.194Z,4.43
2023-05-14T02:07:10.767Z,4.93
2023-05-14T02:08:35.543Z,5.10
2023-05-14T02:09:59.130Z,4.60
2023-05-14T02:11:22.590Z,4.50
2023-05-14T02:12:52.976Z,4.93
2023-05-14T02:14:16.412Z,4.53
2023-05-14T02:15:39.267Z,4.88
2023-05-14T02:17:03.461Z,4.85
2023-05-14T02:18:28.607Z,4.53
2023-05-14T02:19:52.042Z,4.35
2023-05-14T02:21:14.488Z,5.10
2023-05-14T02:22:38.418Z,5.10
2023-05-14T02:24:03.241Z,4.35
2023-05-14T02:25:25.692Z,4.90
2023-05-14T02:26:49.282Z,4.50
2023-05-14T02:28:11.708Z,4.38
2023-05-14T02:29:35.120Z,4.38
2023-05-14T02:30:59.965Z,4.38
2023-05-14T02:32:23.548Z,3.78
2023-05-14T02:33:47.014Z,5.10
2023-05-14T02:35:11.122Z,4.03
2023-05-14T02:36:34.580Z,4.38
2023-05-14T02:37:57.062Z,4.00
2023-05-14T02:39:21.798Z,3.85
2023-05-14T02:40:45.057Z,3.53
2023-05-14T02:42:08.892Z,5.15
2023-05-14T02:43:31.328Z,4.35
2023-05-14T02:44:54.829Z,4.30
2023-05-14T02:46:18.388Z,4.47
2023-05-14T02:47:42.224Z,4.25
2023-05-14T02:49:05.672Z,4.07
2023-05-14T02:50:28.286Z,3.97
2023-05-14T02:51:51.702Z,3.97
2023-05-14T02:53:14.341Z,4.20
2023-05-14T02:54:39.175Z,4.20
2023-05-14T02:56:02.554Z,4.20
2023-05-14T02:57:25.225Z,3.85
2023-05-14T02:58:48.916Z,3.97
2023-05-14T03:00:13.986Z,4.40
2023-05-14T03:01:36.909Z,4.10
2023-05-14T03:03:00.970Z,3.80
2023-05-14T03:04:24.839Z,4.50
2023-05-14T03:05:48.294Z,4.15
2023-05-14T03:07:10.696Z,3.90
2023-05-14T03:08:34.136Z,4.10
2023-05-14T03:10:00.304Z,4.10
2023-05-14T03:11:23.860Z,3.75
2023-05-14T03:12:47.325Z,4.25
2023-05-14T03:14:10.969Z,4.22
2023-05-14T03:15:33.466Z,3.97
2023-05-14T03:16:56.940Z,4.75
2023-05-14T03:18:20.320Z,4.13
2023-05-14T03:19:45.343Z,4.22
2023-05-14T03:21:09.049Z,3.90
2023-05-14T03:22:32.640Z,4.60
2023-05-14T03:23:55.052Z,4.28
2023-05-14T03:25:21.414Z,4.03
2023-05-14T03:26:43.835Z,3.97
2023-05-14T03:28:07.351Z,4.40
2023-05-14T03:29:30.151Z,4.25
2023-05-14T03:30:56.509Z,3.97
2023-05-14T03:32:20.024Z,4.13
2023-05-14T03:33:43.580Z,4.78
2023-05-14T03:35:08.088Z,4.15
2023-05-14T03:36:31.928Z,4.43
2023-05-14T03:37:54.437Z,4.53
2023-05-14T03:39:19.672Z,4.35
2023-05-14T03:40:45.036Z,4.43
2023-05-14T03:42:09.638Z,4.53
2023-05-14T03:43:33.069Z,4.45
2023-05-14T03:44:57.932Z,4.70
2023-05-14T03:46:20.402Z,4.70
2023-05-14T03:47:43.947Z,4.07
2023-05-14T03:49:08.512Z,4.70
2023-05-14T03:50:32.023Z,4.63
2023-05-14T03:51:55.492Z,5.03
2023-05-14T03:53:17.946Z,4.90
2023-05-14T03:54:41.571Z,4.57
2023-05-14T03:56:05.754Z,4.63
2023-05-14T03:57:29.571Z,4.38
2023-05-14T03:58:53.055Z,4.65
2023-05-14T04:00:16.092Z,4.65
2023-05-14T04:01:39.535Z,4.90
2023-05-14T04:03:03.213Z,4.65
2023-05-14T04:04:26.005Z,4.20
2023-05-14T04:05:49.444Z,5.00
2023-05-14T04:07:12.887Z,4.18
2023-05-14T04:08:35.419Z,5.18
2023-05-14T04:10:01.153Z,4.95
2023-05-14T04:11:27.538Z,4.38
2023-05-14T04:12:49.943Z,5.00
2023-05-14T04:14:13.338Z,4.47
2023-05-14T04:15:35.992Z,4.43
2023-05-14T04:17:00.385Z,4.50
2023-05-14T04:18:23.921Z,5.05
2023-05-14T04:19:47.356Z,4.72
2023-05-14T04:21:10.647Z,4.80
2023-05-14T04:22:34.079Z,4.95
2023-05-14T04:23:58.711Z,4.38
2023-05-14T04:25:22.373Z,4.72
2023-05-14T04:26:48.872Z,4.65
2023-05-14T04:28:12.270Z,4.53
2023-05-14T04:29:34.670Z,4.40
2023-05-14T04:30:58.139Z,5.00
2023-05-14T04:32:23.338Z,4.75
2023-05-14T04:33:46.917Z,4.80
2023-05-14T04:35:10.075Z,4.28
2023-05-14T04:36:33.630Z,4.70
2023-05-14T04:37:56.263Z,4.97
2023-05-14T04:39:19.697Z,4.90
2023-05-14T04:40:42.791Z,4.47
2023-05-14T04:42:08.885Z,4.65
2023-05-14T04:43:31.420Z,4.63
2023-05-14T04:44:54.836Z,4.43
2023-05-14T04:46:18.347Z,4.45
2023-05-14T04:47:41.670Z,4.60
2023-05-14T04:49:05.979Z,4.43
2023-05-14T04:50:28.390Z,3.92
2023-05-14T04:51:51.790Z,4.88
2023-05-14T04:53:15.622Z,5.57
2023-05-14T04:54:40.068Z,4.30
2023-05-14T04:56:03.574Z,4.80
2023-05-14T04:57:27.818Z,4.57
2023-05-14T04:58:51.218Z,4.70
2023-05-14T05:00:14.433Z,5.38
2023-05-14T05:01:38.162Z,5.00
2023-05-14T05:03:01.836Z,5.20
2023-05-14T05:04:24.490Z,5.07
2023-05-14T05:05:48.010Z,4.53
2023-05-14T05:07:10.638Z,4.72
2023-05-14T05:08:34.059Z,4.57
2023-05-14T05:09:56.519Z,4.93
2023-05-14T05:11:20.055Z,5.25
2023-05-14T05:12:45.045Z,4.18
2023-05-14T05:14:07.440Z,4.60
2023-05-14T05:15:30.897Z,4.10
2023-05-14T05:16:55.210Z,4.28
2023-05-14T05:18:17.620Z,4.65
2023-05-14T05:19:44.231Z,4.28
2023-05-14T05:21:08.167Z,4.75
2023-05-14T05:22:30.710Z,4.38
2023-05-14T05:23:54.264Z,4.30
2023-05-14T05:25:16.855Z,4.43
2023-05-14T05:26:40.293Z,4.10
2023-05-14T05:28:05.250Z,4.53
2023-05-14T05:29:27.746Z,4.65
2023-05-14T05:30:51.249Z,4.53
2023-05-14T05:32:13.765Z,4.63
2023-05-14T05:33:38.078Z,4.68
2023-05-14T05:35:01.603Z,4.85
2023-05-14T05:36:25.261Z,4.43
2023-05-14T05:37:47.653Z,4.55
2023-05-14T05:39:12.128Z,4.80
2023-05-14T05:40:35.602Z,4.20
2023-05-14T05:41:58.081Z,4.20
2023-05-14T05:43:23.154Z,3.90
2023-05-14T05:44:46.495Z,3.67
2023-05-14T05:46:09.947Z,4.53
2023-05-14T05:47:32.499Z,3.97
2023-05-14T05:48:55.947Z,4.70
2023-05-14T05:50:20.126Z,4.78
2023-05-14T05:51:43.659Z,4.35
2023-05-14T05:53:07.126Z,4.78
2023-05-14T05:54:33.364Z,4.22
2023-05-14T05:55:57.858Z,4.40
2023-05-14T05:57:25.658Z,4.25
2023-05-14T05:58:51.524Z,4.22
2023-05-14T06:00:16.996Z,4.68
2023-05-14T06:01:40.731Z,3.97
2023-05-14T06:03:04.516Z,4.40
2023-05-14T06:04:27.061Z,4.50
2023-05-14T06:05:50.712Z,4.28
2023-05-14T06:07:14.307Z,4.50
2023-05-14T06:08:36.738Z,4.53
2023-05-14T06:10:00.238Z,3.55
2023-05-14T06:11:23.618Z,4.13
2023-05-14T06:12:47.138Z,4.43
2023-05-14T06:14:10.952Z,3.83
2023-05-14T06:15:34.563Z,4.45
2023-05-14T06:16:58.663Z,4.18
2023-05-14T06:18:22.209Z,3.97
2023-05-14T06:19:45.592Z,4.20
2023-05-14T06:21:09.124Z,3.65
2023-05-14T06:22:32.576Z,4.38
2023-05-14T06:23:56.870Z,4.10
2023-05-14T06:25:20.580Z,4.38
2023-05-14T06:26:44.239Z,4.20
2023-05-14T06:28:07.661Z,4.15
2023-05-14T06:29:32.560Z,5.18
2023-05-14T06:30:55.955Z,4.55
2023-05-14T06:32:18.445Z,3.88
2023-05-14T06:33:42.164Z,4.00
2023-05-14T06:35:06.773Z,4.20
2023-05-14T06:36:30.267Z,4.65
2023-05-14T06:37:53.682Z,4.35
2023-05-14T06:39:17.088Z,4.10
2023-05-14T06:40:41.276Z,4.47
2023-05-14T06:42:05.104Z,4.75
2023-05-14T06:43:27.556Z,5.03
2023-05-14T06:44:52.367Z,3.55
2023-05-14T06:46:17.802Z,4.13
2023-05-14T06:47:41.350Z,4.15
2023-05-14T06:49:04.034Z,3.75
2023-05-14T06:50:27.484Z,4.43
2023-05-14T06:51:51.110Z,4.60
2023-05-14T06:53:15.241Z,3.95
2023-05-14T06:54:37.678Z,3.95
2023-05-14T06:56:01.195Z,4.15
2023-05-14T06:57:24.698Z,4.78
2023-05-14T06:58:48.113Z,4.03
2023-05-14T07:00:14.305Z,4.63
2023-05-14T07:01:37.818Z,3.55
2023-05-14T07:03:02.141Z,4.25
2023-05-14T07:04:25.611Z,3.58
2023-05-14T07:05:49.156Z,4.25
2023-05-14T07:07:15.370Z,4.05
2023-05-14T07:08:38.939Z,4.15
2023-05-14T07:10:02.350Z,4.45
2023-05-14T07:11:26.170Z,4.05
2023-05-14T07:12:49.748Z,4.28
2023-05-14T07:14:13.326Z,4.43
2023-05-14T07:15:38.086Z,4.53
2023-05-14T07:17:01.938Z,3.95
2023-05-14T07:18:24.460Z,3.95
2023-05-14T07:19:48.715Z,3.42
2023-05-14T07:21:12.343Z,4.78
2023-05-14T07:22:35.880Z,4.05
2023-05-14T07:23:59.316Z,3.17
2023-05-14T07:25:23.532Z,4.70
2023-05-14T07:26:46.944Z,3.30
2023-05-14T07:28:10.354Z,3.65
2023-05-14T07:29:34.965Z,3.80
2023-05-14T07:31:00.466Z,3.63
2023-05-14T07:32:25.064Z,3.90
2023-05-14T07:33:48.654Z,3.30
2023-05-14T07:35:12.718Z,3.78
2023-05-14T07:36:36.387Z,3.53
2023-05-14T07:37:59.867Z,3.50
2023-05-14T07:39:22.393Z,3.20
2023-05-14T07:40:45.945Z,3.10
2023-05-14T07:42:09.473Z,3.35
2023-05-14T07:43:32.910Z,3.83
2023-05-14T07:44:55.362Z,2.88
2023-05-14T07:46:20.133Z,3.38
2023-05-14T07:47:44.559Z,3.17
2023-05-14T07:49:08.022Z,3.08
2023-05-14T07:50:31.035Z,3.05
2023-05-14T07:51:54.547Z,2.95
2023-05-14T07:53:18.776Z,2.50
2023-05-14T07:54:42.162Z,3.33
2023-05-14T07:56:05.949Z,2.90
2023-05-14T07:57:28.410Z,2.70
2023-05-14T07:58:52.046Z,2.25
2023-05-14T08:00:16.727Z,3.08
2023-05-14T08:01:41.945Z,1.83
2023-05-14T08:03:05.677Z,2.90
2023-05-14T08:04:29.412Z,2.85
2023-05-14T08:05:53.036Z,2.85
2023-05-14T08:07:16.468Z,2.85
2023-05-14T08:08:39.895Z,3.05
2023-05-14T08:10:04.196Z,3.17
2023-05-14T08:11:27.680Z,2.42
2023-05-14T08:12:50.167Z,2.47
2023-05-14T08:14:13.582Z,2.60
2023-05-14T08:15:37.012Z,2.70
2023-05-14T08:17:01.867Z,2.97
2023-05-14T08:18:24.354Z,2.53
2023-05-14T08:19:47.920Z,2.83
2023-05-14T08:21:12.738Z,2.75
2023-05-14T08:22:35.144Z,2.85
2023-05-14T08:23:58.564Z,2.80
2023-05-14T08:25:21.988Z,2.75
2023-05-14T08:26:45.196Z,2.60
2023-05-14T08:28:09.003Z,2.60
2023-05-14T08:29:31.512Z,2.70
2023-05-14T08:30:54.973Z,2.55
2023-05-14T08:32:23.245Z,2.75
2023-05-14T08:33:47.424Z,2.55
2023-05-14T08:35:11.316Z,2.63
2023-05-14T08:36:42.263Z,2.85
2023-05-14T08:38:05.741Z,2.67
2023-05-14T08:39:29.254Z,2.35
2023-05-14T08:40:57.586Z,2.80
2023-05-14T08:42:21.928Z,3.00
2023-05-14T08:43:50.643Z,2.50
2023-05-14T08:45:19.403Z,2.97
2023-05-14T08:46:43.475Z,2.20
2023-05-14T08:48:09.809Z,2.17
2023-05-14T08:49:40.281Z,2.63
2023-05-14T08:51:03.876Z,2.40
2023-05-14T08:52:27.628Z,2.78
2023-05-14T08:53:50.123Z,2.60
2023-05-14T08:55:15.005Z,2.58
2023-05-14T08:56:38.873Z,2.90
2023-05-14T08:58:02.537Z,2.75
2023-05-14T08:59:26.054Z,2.58
2023-05-14T09:00:50.494Z,2.55
2023-05-14T09:02:16.866Z,2.20
2023-05-14T09:03:41.868Z,2.65
2023-05-14T09:05:07.378Z,2.30
2023-05-14T09:06:30.254Z,2.25
2023-05-14T09:07:53.659Z,2.13
2023-05-14T09:09:16.249Z,2.70
2023-05-14T09:10:42.976Z,2.35
2023-05-14T09:12:06.297Z,2.40
2023-05-14T09:13:29.761Z,2.60
2023-05-14T09:14:52.329Z,2.25
2023-05-14T09:16:16.411Z,2.08
2023-05-14T09:17:40.735Z,2.42
2023-05-14T09:19:06.084Z,2.38
2023-05-14T09:20:29.607Z,2.50
2023-05-14T09:21:53.136Z,2.08
2023-05-14T09:23:21.352Z,2.53
2023-05-14T09:24:44.114Z,2.40
2023-05-14T09:26:07.573Z,2.15
2023-05-14T09:27:31.206Z,2.78
2023-05-14T09:28:57.663Z,2.88
2023-05-14T09:30:21.228Z,2.38
2023-05-14T09:31:44.722Z,2.75
2023-05-14T09:33:10.373Z,3.08
2023-05-14T09:34:37.843Z,2.28
2023-05-14T09:36:01.754Z,2.33
2023-05-14T09:37:26.094Z,2.40
2023-05-14T09:38:49.569Z,2.30
2023-05-14T09:40:13.606Z,2.40
2023-05-14T09:41:36.122Z,2.40
2023-05-14T09:43:01.799Z,2.60
2023-05-14T09:44:25.536Z,2.10
2023-05-14T09:45:49.132Z,2.38
2023-05-14T09:47:12.666Z,2.50
2023-05-14T09:48:36.514Z,2.03
2023-05-14T09:50:01.779Z,2.55
2023-05-14T09:51:25.665Z,2.35
2023-05-14T09:52:49.594Z,2.67
2023-05-14T09:54:12.065Z,2.50
2023-05-14T09:55:36.802Z,2.55
2023-05-14T09:57:02.880Z,2.30
2023-05-14T09:58:29.559Z,2.13
2023-05-14T09:59:52.022Z,2.13
2023-05-14T10:01:16.979Z,2.72
2023-05-14T10:02:42.164Z,3.05
2023-05-14T10:04:08.578Z,2.65
2023-05-14T10:05:34.285Z,2.70
2023-05-14T10:06:58.062Z,2.42
2023-05-14T10:08:26.764Z,2.30
2023-05-14T10:09:50.513Z,2.33
2023-05-14T10:11:17.625Z,2.47
2023-05-14T10:12:42.224Z,2.42
2023-05-14T10:14:10.705Z,2.45
2023-05-14T10:15:38.236Z,2.63
2023-05-14T10:17:03.034Z,2.65
2023-05-14T10:18:27.108Z,2.63
2023-05-14T10:19:54.795Z,2.70
2023-05-14T10:21:21.876Z,2.80
2023-05-14T10:22:45.324Z,2.65
2023-05-14T10:24:09.730Z,2.10
2023-05-14T10:25:38.776Z,2.50
2023-05-14T10:27:02.407Z,2.60
2023-05-14T10:28:26.191Z,2.45
2023-05-14T10:29:54.472Z,2.10
2023-05-14T10:31:18.820Z,2.67
2023-05-14T10:32:44.202Z,2.40
2023-05-14T10:34:38.305Z,2.38
2023-05-14T10:36:04.151Z,2.83
2023-05-14T10:37:28.382Z,3.50
2023-05-14T10:38:57.235Z,2.88
2023-05-14T10:40:21.408Z,2.13
2023-05-14T10:41:44.861Z,2.80
2023-05-14T10:43:09.280Z,2.75
2023-05-14T10:44:32.962Z,2.85
2023-05-14T10:45:56.711Z,2.47
2023-05-14T10:47:19.480Z,2.60
2023-05-14T10:48:43.949Z,2.25
2023-05-14T10:50:08.941Z,2.78
2023-05-14T10:51:33.436Z,2.30
2023-05-14T10:52:58.333Z,3.00
2023-05-14T10:54:20.767Z,2.58
2023-05-14T10:55:45.361Z,2.10
2023-05-14T10:57:11.997Z,2.25
2023-05-14T10:58:38.581Z,2.28
2023-05-14T11:00:03.194Z,2.20
2023-05-14T11:01:25.693Z,2.10
2023-05-14T11:02:49.580Z,2.20
2023-05-14T11:04:19.262Z,2.65
2023-05-14T11:05:43.139Z,2.55
2023-05-14T11:07:05.764Z,2.47
2023-05-14T11:08:30.798Z,2.17
2023-05-14T11:09:54.074Z,2.60
2023-05-14T11:11:19.901Z,2.88
2023-05-14T11:12:43.687Z,2.55
2023-05-14T11:14:08.508Z,2.22
2023-05-14T11:15:33.844Z,2.28
2023-05-14T11:16:57.250Z,2.30
2023-05-14T11:18:28.986Z,2.13
2023-05-14T11:19:52.442Z,2.25
2023-05-14T11:21:15.896Z,2.42
2023-05-14T11:22:40.697Z,2.65
2023-05-14T11:24:07.343Z,1.92
2023-05-14T11:25:31.003Z,2.40
2023-05-14T11:26:55.667Z,3.13
2023-05-14T11:28:24.453Z,2.40
2023-05-14T11:29:47.742Z,2.67
2023-05-14T11:31:11.752Z,2.78
2023-05-14T11:32:35.318Z,2.70
2023-05-14T11:34:00.443Z,1.83
2023-05-14T11:35:24.635Z,2.42
2023-05-14T11:36:48.123Z,2.30
2023-05-14T11:38:16.269Z,2.47
2023-05-14T11:39:46.911Z,3.10
2023-05-14T11:41:10.373Z,2.60
2023-05-14T11:42:33.790Z,2.63
2023-05-14T11:43:57.262Z,2.50
2023-05-14T11:45:27.490Z,2.42
2023-05-14T11:46:57.408Z,2.75
2023-05-14T11:48:21.103Z,2.67
2023-05-14T11:49:43.665Z,2.35
2023-05-14T11:51:07.092Z,2.30
2023-05-14T11:52:30.634Z,2.75
2023-05-14T11:53:54.096Z,2.53
2023-05-14T11:55:19.075Z,2.45
2023-05-14T11:56:42.590Z,2.50
2023-05-14T11:58:06.016Z,2.75
2023-05-14T11:59:30.171Z,2.92
2023-05-14T12:00:54.048Z,2.70
2023-05-14T12:02:18.695Z,2.78
2023-05-14T12:03:41.468Z,2.92
2023-05-14T12:05:07.178Z,2.50
2023-05-14T12:06:32.995Z,2.80
2023-05-14T12:07:57.285Z,2.35
2023-05-14T12:09:21.030Z,2.88
2023-05-14T12:10:45.828Z,3.08
2023-05-14T12:12:13.363Z,2.78
2023-05-14T12:13:38.389Z,2.80
2023-05-14T12:15:01.815Z,3.00
2023-05-14T12:16:25.283Z,2.83
2023-05-14T12:17:52.064Z,3.20
2023-05-14T12:19:17.918Z,2.75
2023-05-14T12:20:41.352Z,2.55
2023-05-14T12:22:04.860Z,2.38
2023-05-14T12:23:28.843Z,3.13
2023-05-14T12:24:56.660Z,2.90
2023-05-14T12:26:21.453Z,2.70
2023-05-14T12:27:46.429Z,2.90
2023-05-14T12:29:08.896Z,2.45
2023-05-14T12:30:44.502Z,2.65
2023-05-14T12:32:11.282Z,3.63
2023-05-14T12:33:34.665Z,2.70
2023-05-14T12:34:58.111Z,2.83
2023-05-14T12:36:22.400Z,2.80
2023-05-14T12:37:46.027Z,2.97
2023-05-14T12:39:09.707Z,2.67
2023-05-14T12:40:33.238Z,3.33
2023-05-14T12:41:58.922Z,3.25
2023-05-14T12:43:21.372Z,2.70
2023-05-14T12:44:44.955Z,2.70
2023-05-14T12:46:07.403Z,2.72
2023-05-14T12:47:30.950Z,2.88
2023-05-14T12:48:54.669Z,2.85
2023-05-14T12:50:18.178Z,3.20
2023-05-14T12:51:41.587Z,2.80
2023-05-14T12:53:05.566Z,2.83
2023-05-14T12:54:29.139Z,2.85
2023-05-14T12:55:52.654Z,1.98
2023-05-14T12:57:17.763Z,3.00
2023-05-14T12:58:41.624Z,3.05
2023-05-14T13:00:07.014Z,3.15
2023-05-14T13:01:30.626Z,2.80
2023-05-14T13:02:54.301Z,2.70
2023-05-14T13:04:17.880Z,2.97
2023-05-14T13:05:41.374Z,2.53
2023-05-14T13:07:05.244Z,2.67
2023-05-14T13:08:28.781Z,3.22
2023-05-14T13:09:52.388Z,2.80
2023-05-14T13:11:16.745Z,2.72
2023-05-14T13:12:41.615Z,2.83
2023-05-14T13:14:05.106Z,2.80
2023-05-14T13:15:27.627Z,2.90
2023-05-14T13:16:51.090Z,3.50
2023-05-14T13:18:13.649Z,2.67
2023-05-14T13:19:37.145Z,3.10
2023-05-14T13:21:00.622Z,2.40
2023-05-14T13:22:24.271Z,2.85
2023-05-14T13:23:47.874Z,3.15
2023-05-14T13:25:10.839Z,2.95
2023-05-14T13:26:35.071Z,2.30
2023-05-14T13:27:59.827Z,2.83
2023-05-14T13:29:23.283Z,2.67
2023-05-14T13:31:05.974Z,2.38
2023-05-14T13:32:35.973Z,2.30
2023-05-14T13:33:59.443Z,2.50
2023-05-14T13:35:23.227Z,2.38
2023-05-14T13:36:47.238Z,2.50
2023-05-14T13:38:10.616Z,3.13
2023-05-14T13:39:34.409Z,3.20
2023-05-14T13:40:57.463Z,3.25
2023-05-14T13:42:20.866Z,2.80
2023-05-14T13:43:45.750Z,2.72
2023-05-14T13:45:09.120Z,3.25
2023-05-14T13:46:32.611Z,3.22
2023-05-14T13:47:58.898Z,3.35
2023-05-14T13:49:23.243Z,3.53
2023-05-14T13:50:46.689Z,3.20
2023-05-14T13:52:12.587Z,3.33
2023-05-14T13:53:35.965Z,2.97
2023-05-14T13:54:58.453Z,2.63
2023-05-14T13:56:22.024Z,2.40
2023-05-14T13:57:45.657Z,2.90
2023-05-14T13:59:11.113Z,2.47
2023-05-14T14:00:33.570Z,2.85
2023-05-14T14:01:57.583Z,2.83
2023-05-14T14:03:20.278Z,2.60
2023-05-14T14:04:43.816Z,2.30
2023-05-14T14:06:07.523Z,2.88
2023-05-14T14:07:29.914Z,2.40
2023-05-14T14:08:53.381Z,2.53
2023-05-14T14:10:17.003Z,2.38
2023-05-14T14:11:40.977Z,2.58
2023-05-14T14:13:03.398Z,2.55
2023-05-14T14:14:28.647Z,2.72
2023-05-14T14:15:52.104Z,2.60
2023-05-14T14:17:14.537Z,2.28
2023-05-14T14:18:38.025Z,2.60
2023-05-14T14:20:00.441Z,2.33
2023-05-14T14:21:23.968Z,2.47
2023-05-14T14:22:46.465Z,2.83
2023-05-14T14:24:09.909Z,2.53
2023-05-14T14:25:32.397Z,2.53
2023-05-14T14:26:55.856Z,2.67
2023-05-14T14:28:19.137Z,2.42
2023-05-14T14:29:43.964Z,2.22
2023-05-14T14:31:07.463Z,3.10
2023-05-14T14:32:30.072Z,2.30
2023-05-14T14:34:00.407Z,2.80
2023-05-14T14:35:24.995Z,2.35
2023-05-14T14:36:47.626Z,2.60
2023-05-14T14:38:11.009Z,2.83
2023-05-14T14:39:37.374Z,2.55
2023-05-14T14:41:02.963Z,2.50
2023-05-14T14:42:26.405Z,2.40
2023-05-14T14:43:49.868Z,2.38
2023-05-14T14:45:14.834Z,2.63
2023-05-14T14:46:38.252Z,2.90
2023-05-14T14:48:23.625Z,2.60
2023-05-14T14:49:47.079Z,2.53
2023-05-14T14:51:11.052Z,2.45
2023-05-14T14:52:35.544Z,2.35
2023-05-14T14:53:59.032Z,2.55
2023-05-14T14:55:21.723Z,2.55
2023-05-14T14:56:46.746Z,2.08
2023-05-14T14:58:10.288Z,2.30
2023-05-14T14:59:33.735Z,2.30
2023-05-14T15:00:59.325Z,2.80
2023-05-14T15:02:22.906Z,2.65
2023-05-14T15:03:48.182Z,2.63
2023-05-14T15:05:11.836Z,2.67
2023-05-14T15:06:35.333Z,2.55
2023-05-14T15:07:59.133Z,2.50
2023-05-14T15:09:22.568Z,2.33
2023-05-14T15:10:46.525Z,2.20
2023-05-14T15:12:10.850Z,2.13
2023-05-14T15:13:34.357Z,2.50
2023-05-14T15:14:57.830Z,2.50
2023-05-14T15:16:23.074Z,2.70
2023-05-14T15:17:46.606Z,2.30
2023-05-14T15:19:10.294Z,2.00
2023-05-14T15:20:33.850Z,1.85
2023-05-14T15:21:56.317Z,2.10
2023-05-14T15:23:19.964Z,1.88
2023-05-14T15:24:43.509Z,2.53
2023-05-14T15:26:07.113Z,1.80
2023-05-14T15:27:29.506Z,2.05
2023-05-14T15:28:53.193Z,2.10
2023-05-14T15:30:16.030Z,2.30
2023-05-14T15:31:41.365Z,2.50
2023-05-14T15:33:05.227Z,2.00
2023-05-14T15:34:28.688Z,2.40
2023-05-14T15:35:58.714Z,2.38
2023-05-14T15:37:22.225Z,2.50
2023-05-14T15:38:44.701Z,2.30
2023-05-14T15:40:09.426Z,2.35
2023-05-14T15:41:36.070Z,2.80
2023-05-14T15:42:59.567Z,2.38
2023-05-14T15:44:23.000Z,2.15
2023-05-14T15:45:46.546Z,2.20
2023-05-14T15:47:11.864Z,2.10
2023-05-14T15:48:35.897Z,2.05
2023-05-14T15:49:58.450Z,2.42
2023-05-14T15:51:21.890Z,1.88
2023-05-14T15:52:45.425Z,2.40
2023-05-14T15:54:09.450Z,2.53
2023-05-14T15:55:33.000Z,2.20
2023-05-14T15:56:55.756Z,2.90
2023-05-14T15:58:19.158Z,2.60
2023-05-14T15:59:42.683Z,2.35
2023-05-14T16:01:06.404Z,2.33
2023-05-14T16:02:30.621Z,2.40
2023-05-14T16:03:55.270Z,2.35
2023-05-14T16:05:19.033Z,2.72
2023-05-14T16:06:44.898Z,2.50
2023-05-14T16:08:08.711Z,2.50
2023-05-14T16:09:33.290Z,2.33
2023-05-14T16:10:56.700Z,2.42
2023-05-14T16:12:20.139Z,2.13
2023-05-14T16:13:43.636Z,2.13
2023-05-14T16:15:08.597Z,2.50
2023-05-14T16:16:32.402Z,2.15
2023-05-14T16:17:57.263Z,2.33
2023-05-14T16:19:21.007Z,2.33
2023-05-14T16:20:44.459Z,2.33
2023-05-14T16:22:07.488Z,2.22
2023-05-14T16:23:31.289Z,2.22
2023-05-14T16:24:53.982Z,2.13
2023-05-14T16:26:17.894Z,2.50
2023-05-14T16:27:41.332Z,2.35
2023-05-14T16:29:03.773Z,2.17
2023-05-14T16:30:27.205Z,2.20
2023-05-14T16:31:50.713Z,2.50
2023-05-14T16:33:16.350Z,2.75
2023-05-14T16:34:40.033Z,2.25
2023-05-14T16:36:03.491Z,2.10
2023-05-14T16:37:28.319Z,2.50
2023-05-14T16:39:06.773Z,1.80
2023-05-14T16:40:31.050Z,2.20
2023-05-14T16:41:54.680Z,2.47
2023-05-14T16:43:19.103Z,2.35
2023-05-14T16:44:42.530Z,2.17
2023-05-14T16:46:06.416Z,2.17
2023-05-14T16:47:28.963Z,2.78
2023-05-14T16:48:54.817Z,2.13
2023-05-14T16:50:18.421Z,2.25
2023-05-14T16:51:43.146Z,2.20
2023-05-14T16:53:06.606Z,2.22
2023-05-14T16:54:30.895Z,2.25
2023-05-14T16:55:54.457Z,2.50
2023-05-14T16:57:16.874Z,2.55
2023-05-14T16:58:40.302Z,2.25
2023-05-14T17:00:06.818Z,2.30
2023-05-14T17:01:30.489Z,2.70
2023-05-14T17:02:54.110Z,2.10
2023-05-14T17:04:19.092Z,2.67
2023-05-14T17:05:43.367Z,2.67
2023-05-14T17:07:07.109Z,2.88
2023-05-14T17:08:33.498Z,2.50
2023-05-14T17:09:58.073Z,2.75
2023-05-14T17:11:23.210Z,2.10
2023-05-14T17:12:46.992Z,2.47
2023-05-14T17:14:10.401Z,2.67
2023-05-14T17:15:33.955Z,2.97
2023-05-14T17:16:58.236Z,2.63
2023-05-14T17:18:21.873Z,2.70
2023-05-14T17:19:46.894Z,2.85
2023-05-14T17:21:10.447Z,1.98
2023-05-14T17:22:34.046Z,2.47
2023-05-14T17:23:57.475Z,2.80
2023-05-14T17:25:23.664Z,2.60
2023-05-14T17:26:47.312Z,2.45
2023-05-14T17:28:10.764Z,2.83
2023-05-14T17:29:34.263Z,2.40
2023-05-14T17:30:57.746Z,2.85
2023-05-14T17:32:21.416Z,2.97
2023-05-14T17:33:44.915Z,2.67
2023-05-14T17:35:11.462Z,2.25
2023-05-14T17:36:34.995Z,2.30
2023-05-14T17:38:00.410Z,3.15
2023-05-14T17:39:25.561Z,2.53
2023-05-14T17:40:49.047Z,2.20
2023-05-14T17:42:11.437Z,2.85
2023-05-14T17:43:34.956Z,2.75
2023-05-14T17:44:59.238Z,3.05
2023-05-14T17:46:21.798Z,2.25
2023-05-14T17:47:45.291Z,2.38
2023-05-14T17:49:08.727Z,2.50
2023-05-14T17:50:33.588Z,2.60
2023-05-14T17:51:57.164Z,2.47
2023-05-14T17:53:20.702Z,2.65
2023-05-14T17:54:44.214Z,2.40
2023-05-14T17:56:07.546Z,3.00
2023-05-14T17:57:30.956Z,2.70
2023-05-14T17:58:54.318Z,3.00
2023-05-14T18:00:18.151Z,2.80
2023-05-14T18:01:42.412Z,2.88
2023-05-14T18:03:07.716Z,3.22
2023-05-14T18:04:31.479Z,3.05
2023-05-14T18:05:56.633Z,2.88
2023-05-14T18:07:19.404Z,3.00
2023-05-14T18:08:42.841Z,3.00
2023-05-14T18:10:07.336Z,2.63
2023-05-14T18:11:33.737Z,2.90
2023-05-14T18:12:57.299Z,2.95
2023-05-14T18:14:20.790Z,3.03
2023-05-14T18:15:44.281Z,2.92
2023-05-14T18:17:07.859Z,2.67
2023-05-14T18:18:32.445Z,2.72
2023-05-14T18:19:55.880Z,2.90
2023-05-14T18:21:20.677Z,2.42
2023-05-14T18:22:44.265Z,2.72
2023-05-14T18:24:08.549Z,3.10
2023-05-14T18:25:32.171Z,2.65
2023-05-14T18:26:56.124Z,2.70
2023-05-14T18:28:21.322Z,3.13
2023-05-14T18:29:44.756Z,2.58
2023-05-14T18:31:08.422Z,2.63
2023-05-14T18:32:31.857Z,2.78
2023-05-14T18:33:55.430Z,2.78
2023-05-14T18:35:18.939Z,2.80
2023-05-14T18:36:43.808Z,2.70
2023-05-14T18:38:07.967Z,2.85
2023-05-14T18:39:31.411Z,3.40
2023-05-14T18:40:54.761Z,2.80